sensor_id;sensor_type;location;lat;lon;timestamp;temperature;humidity
18577;DHT22;9418;52.694;13.294;2022-10-22T00:00:53;13.40;99.90
18577;DHT22;9418;52.694;13.294;2022-10-22T00:03:22;13.40;99.90
18577;DHT22;9418;52.694;13.294;2022-10-22T00:05:49;13.40;99.90
18577;DHT22;9418;52.694;13.294;2022-10-22T00:08:15;13.40;99.90
18577;DHT22;9418;52.694;13.294;2022-10-22T00:10:42;13.40;99.90
18577;DHT22;9418;52.694;13.294;2022-10-22T00:13:09;13.30;99.90
18577;DHT22;9418;52.694;13.294;2022-10-22T00:15:35;13.30;99.90
18577;DHT22;9418;52.694;13.294;2022-10-22T00:18:02;13.30;99.90
18577;DHT22;9418;52.694;13.294;2022-10-22T00:20:30;13.30;99.90
18577;DHT22;9418;52.694;13.294;2022-10-22T00:22:57;13.30;99.90
18577;DHT22;9418;52.694;13.294;2022-10-22T00:25:23;13.30;99.90
18577;DHT22;9418;52.694;13.294;2022-10-22T00:27:50;13.30;99.90
18577;DHT22;9418;52.694;13.294;2022-10-22T00:30:17;13.30;99.90
18577;DHT22;9418;52.694;13.294;2022-10-22T00:32:43;13.20;99.90
18577;DHT22;9418;52.694;13.294;2022-10-22T00:35:10;13.20;99.90
18577;DHT22;9418;52.694;13.294;2022-10-22T00:37:38;13.20;99.90
18577;DHT22;9418;52.694;13.294;2022-10-22T00:40:06;13.20;99.90
18577;DHT22;9418;52.694;13.294;2022-10-22T00:42:32;13.20;99.90
18577;DHT22;9418;52.694;13.294;2022-10-22T00:45:04;13.20;99.90
18577;DHT22;9418;52.694;13.294;2022-10-22T00:47:35;13.20;99.90
18577;DHT22;9418;52.694;13.294;2022-10-22T00:50:03;13.10;99.90
18577;DHT22;9418;52.694;13.294;2022-10-22T00:52:31;13.10;99.90
18577;DHT22;9418;52.694;13.294;2022-10-22T00:54:59;13.10;99.90
18577;DHT22;9418;52.694;13.294;2022-10-22T00:57:26;13.00;99.90
18577;DHT22;9418;52.694;13.294;2022-10-22T00:59:54;13.00;99.90
18577;DHT22;9418;52.694;13.294;2022-10-22T01:02:22;12.90;99.90
18577;DHT22;9418;52.694;13.294;2022-10-22T01:04:49;12.90;99.90
18577;DHT22;9418;52.694;13.294;2022-10-22T01:07:18;12.80;99.90
18577;DHT22;9418;52.694;13.294;2022-10-22T01:09:52;12.80;99.90
18577;DHT22;9418;52.694;13.294;2022-10-22T01:12:27;12.70;99.90
18577;DHT22;9418;52.694;13.294;2022-10-22T01:15:05;12.80;99.90
18577;DHT22;9418;52.694;13.294;2022-10-22T01:17:40;12.70;99.90
18577;DHT22;9418;52.694;13.294;2022-10-22T01:20:18;12.70;99.90
18577;DHT22;9418;52.694;13.294;2022-10-22T01:22:56;12.80;99.90
18577;DHT22;9418;52.694;13.294;2022-10-22T01:25:30;12.90;99.90
18577;DHT22;9418;52.694;13.294;2022-10-22T01:28:17;12.90;99.90
18577;DHT22;9418;52.694;13.294;2022-10-22T01:30:48;12.90;99.90
18577;DHT22;9418;52.694;13.294;2022-10-22T01:33:18;13.00;99.90
18577;DHT22;9418;52.694;13.294;2022-10-22T01:35:46;13.00;99.90
18577;DHT22;9418;52.694;13.294;2022-10-22T01:38:16;12.90;99.90
18577;DHT22;9418;52.694;13.294;2022-10-22T01:40:45;12.90;99.90
18577;DHT22;9418;52.694;13.294;2022-10-22T01:43:12;12.90;99.90
18577;DHT22;9418;52.694;13.294;2022-10-22T01:45:42;12.90;99.90
18577;DHT22;9418;52.694;13.294;2022-10-22T01:48:25;12.90;99.90
18577;DHT22;9418;52.694;13.294;2022-10-22T01:51:06;12.90;99.90
18577;DHT22;9418;52.694;13.294;2022-10-22T01:53:43;12.90;99.90
18577;DHT22;9418;52.694;13.294;2022-10-22T01:56:25;12.80;99.90
18577;DHT22;9418;52.694;13.294;2022-10-22T01:58:58;12.70;99.90
18577;DHT22;9418;52.694;13.294;2022-10-22T02:01:32;12.70;99.90
18577;DHT22;9418;52.694;13.294;2022-10-22T02:04:10;12.70;99.90
18577;DHT22;9418;52.694;13.294;2022-10-22T02:06:40;12.60;99.90
18577;DHT22;9418;52.694;13.294;2022-10-22T02:09:10;12.60;99.90
18577;DHT22;9418;52.694;13.294;2022-10-22T02:11:39;12.60;99.90
18577;DHT22;9418;52.694;13.294;2022-10-22T02:14:06;12.60;99.90
18577;DHT22;9418;52.694;13.294;2022-10-22T02:16:37;12.60;99.90
18577;DHT22;9418;52.694;13.294;2022-10-22T02:19:10;12.50;99.90
18577;DHT22;9418;52.694;13.294;2022-10-22T02:21:39;12.60;99.90
18577;DHT22;9418;52.694;13.294;2022-10-22T02:24:06;12.60;99.90
18577;DHT22;9418;52.694;13.294;2022-10-22T02:26:37;12.60;99.90
18577;DHT22;9418;52.694;13.294;2022-10-22T02:29:10;12.50;99.90
18577;DHT22;9418;52.694;13.294;2022-10-22T02:31:42;12.50;99.90
18577;DHT22;9418;52.694;13.294;2022-10-22T02:34:16;12.50;99.90
18577;DHT22;9418;52.694;13.294;2022-10-22T02:36:45;12.60;99.90
18577;DHT22;9418;52.694;13.294;2022-10-22T02:39:12;12.60;99.90
18577;DHT22;9418;52.694;13.294;2022-10-22T02:41:40;12.60;99.90
18577;DHT22;9418;52.694;13.294;2022-10-22T02:44:09;12.60;99.90
18577;DHT22;9418;52.694;13.294;2022-10-22T02:46:36;12.60;99.90
18577;DHT22;9418;52.694;13.294;2022-10-22T02:49:03;12.60;99.90
18577;DHT22;9418;52.694;13.294;2022-10-22T02:51:31;12.50;99.90
18577;DHT22;9418;52.694;13.294;2022-10-22T02:53:58;12.50;99.90
18577;DHT22;9418;52.694;13.294;2022-10-22T02:56:24;12.50;99.90
18577;DHT22;9418;52.694;13.294;2022-10-22T02:58:51;12.50;99.90
18577;DHT22;9418;52.694;13.294;2022-10-22T03:01:18;12.50;99.90
18577;DHT22;9418;52.694;13.294;2022-10-22T03:03:44;12.40;99.90
18577;DHT22;9418;52.694;13.294;2022-10-22T03:06:11;12.40;99.90
18577;DHT22;9418;52.694;13.294;2022-10-22T03:08:39;12.40;99.90
18577;DHT22;9418;52.694;13.294;2022-10-22T03:11:06;12.50;99.90
18577;DHT22;9418;52.694;13.294;2022-10-22T03:13:33;12.40;99.90
18577;DHT22;9418;52.694;13.294;2022-10-22T03:15:59;12.50;99.90
18577;DHT22;9418;52.694;13.294;2022-10-22T03:18:26;12.40;99.90
18577;DHT22;9418;52.694;13.294;2022-10-22T03:21:01;12.40;99.90
18577;DHT22;9418;52.694;13.294;2022-10-22T03:23:30;12.50;99.90
18577;DHT22;9418;52.694;13.294;2022-10-22T03:25:58;12.50;99.90
18577;DHT22;9418;52.694;13.294;2022-10-22T03:28:25;12.50;99.90
18577;DHT22;9418;52.694;13.294;2022-10-22T03:30:52;12.40;99.90
18577;DHT22;9418;52.694;13.294;2022-10-22T03:33:18;12.40;99.90
18577;DHT22;9418;52.694;13.294;2022-10-22T03:35:46;12.40;99.90
18577;DHT22;9418;52.694;13.294;2022-10-22T03:38:13;12.30;99.90
18577;DHT22;9418;52.694;13.294;2022-10-22T03:40:41;12.30;99.90
18577;DHT22;9418;52.694;13.294;2022-10-22T03:43:10;12.30;99.90
18577;DHT22;9418;52.694;13.294;2022-10-22T03:45:36;12.30;99.90
18577;DHT22;9418;52.694;13.294;2022-10-22T03:48:04;12.30;99.90
18577;DHT22;9418;52.694;13.294;2022-10-22T03:50:30;12.30;99.90
18577;DHT22;9418;52.694;13.294;2022-10-22T03:52:57;12.30;99.90
18577;DHT22;9418;52.694;13.294;2022-10-22T03:55:24;12.30;99.90
18577;DHT22;9418;52.694;13.294;2022-10-22T03:57:50;12.30;99.90
18577;DHT22;9418;52.694;13.294;2022-10-22T04:00:18;12.30;99.90
18577;DHT22;9418;52.694;13.294;2022-10-22T04:02:45;12.30;99.90
18577;DHT22;9418;52.694;13.294;2022-10-22T04:05:12;12.30;99.90
18577;DHT22;9418;52.694;13.294;2022-10-22T04:07:38;12.30;99.90
18577;DHT22;9418;52.694;13.294;2022-10-22T04:10:05;12.30;99.90
18577;DHT22;9418;52.694;13.294;2022-10-22T04:12:32;12.20;99.90
18577;DHT22;9418;52.694;13.294;2022-10-22T04:14:59;12.20;99.90
18577;DHT22;9418;52.694;13.294;2022-10-22T04:17:32;12.20;99.90
18577;DHT22;9418;52.694;13.294;2022-10-22T04:19:58;12.20;99.90
18577;DHT22;9418;52.694;13.294;2022-10-22T04:22:25;12.20;99.90
18577;DHT22;9418;52.694;13.294;2022-10-22T04:24:51;12.20;99.90
18577;DHT22;9418;52.694;13.294;2022-10-22T04:27:18;12.20;99.90
18577;DHT22;9418;52.694;13.294;2022-10-22T04:29:45;12.10;99.90
18577;DHT22;9418;52.694;13.294;2022-10-22T04:32:11;12.20;99.90
18577;DHT22;9418;52.694;13.294;2022-10-22T04:34:39;12.20;99.90
18577;DHT22;9418;52.694;13.294;2022-10-22T04:37:06;12.20;99.90
18577;DHT22;9418;52.694;13.294;2022-10-22T04:39:32;12.20;99.90
18577;DHT22;9418;52.694;13.294;2022-10-22T04:41:59;12.30;99.90
18577;DHT22;9418;52.694;13.294;2022-10-22T04:44:25;12.30;99.90
18577;DHT22;9418;52.694;13.294;2022-10-22T04:46:52;12.30;99.90
18577;DHT22;9418;52.694;13.294;2022-10-22T04:49:18;12.30;99.90
18577;DHT22;9418;52.694;13.294;2022-10-22T04:51:46;12.30;99.90
18577;DHT22;9418;52.694;13.294;2022-10-22T04:54:13;12.30;99.90
18577;DHT22;9418;52.694;13.294;2022-10-22T04:56:39;12.30;99.90
18577;DHT22;9418;52.694;13.294;2022-10-22T04:59:08;12.30;99.90
18577;DHT22;9418;52.694;13.294;2022-10-22T05:01:38;12.30;99.90
18577;DHT22;9418;52.694;13.294;2022-10-22T05:04:07;12.20;99.90
18577;DHT22;9418;52.694;13.294;2022-10-22T05:06:35;12.30;99.90
18577;DHT22;9418;52.694;13.294;2022-10-22T05:09:04;12.20;99.90
18577;DHT22;9418;52.694;13.294;2022-10-22T05:11:34;12.20;99.90
18577;DHT22;9418;52.694;13.294;2022-10-22T05:14:02;12.20;99.90
18577;DHT22;9418;52.694;13.294;2022-10-22T05:16:30;12.20;99.90
18577;DHT22;9418;52.694;13.294;2022-10-22T05:18:58;12.10;99.90
18577;DHT22;9418;52.694;13.294;2022-10-22T05:21:25;12.20;99.90
18577;DHT22;9418;52.694;13.294;2022-10-22T05:23:53;12.10;99.90
18577;DHT22;9418;52.694;13.294;2022-10-22T05:26:21;12.10;99.90
18577;DHT22;9418;52.694;13.294;2022-10-22T05:28:50;12.10;99.90
18577;DHT22;9418;52.694;13.294;2022-10-22T05:31:17;12.10;99.90
18577;DHT22;9418;52.694;13.294;2022-10-22T05:33:45;12.10;99.90
18577;DHT22;9418;52.694;13.294;2022-10-22T05:36:13;12.00;99.90
18577;DHT22;9418;52.694;13.294;2022-10-22T05:38:40;12.00;99.90
18577;DHT22;9418;52.694;13.294;2022-10-22T05:41:09;12.00;99.90
18577;DHT22;9418;52.694;13.294;2022-10-22T05:43:37;12.00;99.90
18577;DHT22;9418;52.694;13.294;2022-10-22T05:46:06;12.00;99.90
18577;DHT22;9418;52.694;13.294;2022-10-22T05:48:33;12.00;99.90
18577;DHT22;9418;52.694;13.294;2022-10-22T05:51:00;11.90;99.90
18577;DHT22;9418;52.694;13.294;2022-10-22T05:53:29;11.90;99.90
18577;DHT22;9418;52.694;13.294;2022-10-22T05:55:59;11.90;99.90
18577;DHT22;9418;52.694;13.294;2022-10-22T05:58:26;11.90;99.90
18577;DHT22;9418;52.694;13.294;2022-10-22T06:00:54;11.90;99.90
18577;DHT22;9418;52.694;13.294;2022-10-22T06:03:20;11.90;99.90
18577;DHT22;9418;52.694;13.294;2022-10-22T06:05:47;11.90;99.90
18577;DHT22;9418;52.694;13.294;2022-10-22T06:08:14;11.90;99.90
18577;DHT22;9418;52.694;13.294;2022-10-22T06:10:41;11.90;99.90
18577;DHT22;9418;52.694;13.294;2022-10-22T06:13:08;11.90;99.90
18577;DHT22;9418;52.694;13.294;2022-10-22T06:15:35;12.00;99.90
18577;DHT22;9418;52.694;13.294;2022-10-22T06:18:03;11.90;99.90
18577;DHT22;9418;52.694;13.294;2022-10-22T06:20:30;12.00;99.90
18577;DHT22;9418;52.694;13.294;2022-10-22T06:22:58;12.00;99.90
18577;DHT22;9418;52.694;13.294;2022-10-22T06:25:25;12.10;99.90
18577;DHT22;9418;52.694;13.294;2022-10-22T06:27:52;12.10;99.90
18577;DHT22;9418;52.694;13.294;2022-10-22T06:30:19;12.20;99.90
18577;DHT22;9418;52.694;13.294;2022-10-22T06:32:45;12.30;99.90
18577;DHT22;9418;52.694;13.294;2022-10-22T06:35:13;12.30;99.90
18577;DHT22;9418;52.694;13.294;2022-10-22T06:37:40;12.40;99.90
18577;DHT22;9418;52.694;13.294;2022-10-22T06:40:07;12.40;99.90
18577;DHT22;9418;52.694;13.294;2022-10-22T06:42:35;12.40;99.90
18577;DHT22;9418;52.694;13.294;2022-10-22T06:45:02;12.40;99.90
18577;DHT22;9418;52.694;13.294;2022-10-22T06:47:28;12.50;99.90
18577;DHT22;9418;52.694;13.294;2022-10-22T06:49:57;12.50;99.90
18577;DHT22;9418;52.694;13.294;2022-10-22T06:52:25;12.50;99.90
18577;DHT22;9418;52.694;13.294;2022-10-22T06:54:52;12.50;99.90
18577;DHT22;9418;52.694;13.294;2022-10-22T06:57:18;12.60;99.90
18577;DHT22;9418;52.694;13.294;2022-10-22T06:59:45;12.60;99.90
18577;DHT22;9418;52.694;13.294;2022-10-22T07:02:12;12.60;99.90
18577;DHT22;9418;52.694;13.294;2022-10-22T07:04:38;12.70;99.90
18577;DHT22;9418;52.694;13.294;2022-10-22T07:07:05;12.70;99.90
18577;DHT22;9418;52.694;13.294;2022-10-22T07:09:32;12.70;99.90
18577;DHT22;9418;52.694;13.294;2022-10-22T07:11:59;12.70;99.90
18577;DHT22;9418;52.694;13.294;2022-10-22T07:14:26;12.80;99.90
18577;DHT22;9418;52.694;13.294;2022-10-22T07:16:52;12.80;99.90
18577;DHT22;9418;52.694;13.294;2022-10-22T07:19:19;12.80;99.90
18577;DHT22;9418;52.694;13.294;2022-10-22T07:21:45;12.90;99.90
18577;DHT22;9418;52.694;13.294;2022-10-22T07:24:12;12.90;99.90
18577;DHT22;9418;52.694;13.294;2022-10-22T07:26:40;12.90;99.90
18577;DHT22;9418;52.694;13.294;2022-10-22T07:29:06;13.00;99.90
18577;DHT22;9418;52.694;13.294;2022-10-22T07:31:34;13.00;99.90
18577;DHT22;9418;52.694;13.294;2022-10-22T07:34:01;13.00;99.90
18577;DHT22;9418;52.694;13.294;2022-10-22T07:36:27;13.00;99.90
18577;DHT22;9418;52.694;13.294;2022-10-22T07:38:56;13.10;99.90
18577;DHT22;9418;52.694;13.294;2022-10-22T07:41:23;13.10;99.90
18577;DHT22;9418;52.694;13.294;2022-10-22T07:43:52;13.10;99.90
18577;DHT22;9418;52.694;13.294;2022-10-22T07:46:18;13.20;99.90
18577;DHT22;9418;52.694;13.294;2022-10-22T07:48:45;13.20;99.90
18577;DHT22;9418;52.694;13.294;2022-10-22T07:51:12;13.30;99.90
18577;DHT22;9418;52.694;13.294;2022-10-22T07:53:39;13.30;99.90
18577;DHT22;9418;52.694;13.294;2022-10-22T07:56:06;13.30;99.90
18577;DHT22;9418;52.694;13.294;2022-10-22T07:58:33;13.40;99.90
18577;DHT22;9418;52.694;13.294;2022-10-22T08:01:02;13.40;99.90
18577;DHT22;9418;52.694;13.294;2022-10-22T08:03:30;13.50;99.90
18577;DHT22;9418;52.694;13.294;2022-10-22T08:05:57;13.50;99.90
18577;DHT22;9418;52.694;13.294;2022-10-22T08:08:24;13.50;99.90
18577;DHT22;9418;52.694;13.294;2022-10-22T08:10:52;13.60;99.90
18577;DHT22;9418;52.694;13.294;2022-10-22T08:13:19;13.60;99.90
18577;DHT22;9418;52.694;13.294;2022-10-22T08:15:46;13.60;99.90
18577;DHT22;9418;52.694;13.294;2022-10-22T08:18:13;13.60;99.90
18577;DHT22;9418;52.694;13.294;2022-10-22T08:20:41;13.60;99.90
18577;DHT22;9418;52.694;13.294;2022-10-22T08:23:08;13.70;99.90
18577;DHT22;9418;52.694;13.294;2022-10-22T08:25:35;13.70;99.90
18577;DHT22;9418;52.694;13.294;2022-10-22T08:28:01;13.80;99.90
18577;DHT22;9418;52.694;13.294;2022-10-22T08:30:28;13.80;99.90
18577;DHT22;9418;52.694;13.294;2022-10-22T08:32:54;13.80;99.90
18577;DHT22;9418;52.694;13.294;2022-10-22T08:35:22;13.80;99.90
18577;DHT22;9418;52.694;13.294;2022-10-22T08:37:49;13.80;99.90
18577;DHT22;9418;52.694;13.294;2022-10-22T08:40:23;13.80;99.90
18577;DHT22;9418;52.694;13.294;2022-10-22T08:43:19;13.90;99.90
18577;DHT22;9418;52.694;13.294;2022-10-22T08:45:58;13.90;99.90
18577;DHT22;9418;52.694;13.294;2022-10-22T08:48:39;14.00;99.90
18577;DHT22;9418;52.694;13.294;2022-10-22T08:51:11;14.00;99.90
18577;DHT22;9418;52.694;13.294;2022-10-22T08:53:44;14.00;99.90
18577;DHT22;9418;52.694;13.294;2022-10-22T08:56:14;14.10;99.90
18577;DHT22;9418;52.694;13.294;2022-10-22T08:58:46;14.20;99.90
18577;DHT22;9418;52.694;13.294;2022-10-22T09:01:18;14.30;99.90
18577;DHT22;9418;52.694;13.294;2022-10-22T09:03:50;14.30;99.90
18577;DHT22;9418;52.694;13.294;2022-10-22T09:06:21;14.40;99.90
18577;DHT22;9418;52.694;13.294;2022-10-22T09:08:49;14.40;99.90
18577;DHT22;9418;52.694;13.294;2022-10-22T09:11:23;14.40;99.90
18577;DHT22;9418;52.694;13.294;2022-10-22T09:13:51;14.40;99.90
18577;DHT22;9418;52.694;13.294;2022-10-22T09:16:23;14.30;99.90
18577;DHT22;9418;52.694;13.294;2022-10-22T09:19:02;14.30;99.90
18577;DHT22;9418;52.694;13.294;2022-10-22T09:21:39;14.40;99.90
18577;DHT22;9418;52.694;13.294;2022-10-22T09:24:11;14.40;99.90
18577;DHT22;9418;52.694;13.294;2022-10-22T09:26:39;14.40;99.90
18577;DHT22;9418;52.694;13.294;2022-10-22T09:29:08;14.50;99.90
18577;DHT22;9418;52.694;13.294;2022-10-22T09:31:39;14.70;99.90
18577;DHT22;9418;52.694;13.294;2022-10-22T09:34:05;14.70;99.90
18577;DHT22;9418;52.694;13.294;2022-10-22T09:36:34;14.80;99.90
18577;DHT22;9418;52.694;13.294;2022-10-22T09:39:00;14.80;99.90
18577;DHT22;9418;52.694;13.294;2022-10-22T09:41:29;14.90;99.90
18577;DHT22;9418;52.694;13.294;2022-10-22T09:43:56;14.90;99.90
18577;DHT22;9418;52.694;13.294;2022-10-22T09:46:27;14.90;99.90
18577;DHT22;9418;52.694;13.294;2022-10-22T09:49:00;14.90;99.90
18577;DHT22;9418;52.694;13.294;2022-10-22T09:51:40;14.90;99.90
18577;DHT22;9418;52.694;13.294;2022-10-22T09:54:15;14.90;99.90
18577;DHT22;9418;52.694;13.294;2022-10-22T09:56:51;14.80;99.90
18577;DHT22;9418;52.694;13.294;2022-10-22T09:59:26;14.80;99.90
18577;DHT22;9418;52.694;13.294;2022-10-22T10:02:05;14.80;99.90
18577;DHT22;9418;52.694;13.294;2022-10-22T10:04:34;14.80;99.90
18577;DHT22;9418;52.694;13.294;2022-10-22T10:07:02;14.80;99.90
18577;DHT22;9418;52.694;13.294;2022-10-22T10:09:30;14.80;99.90
18577;DHT22;9418;52.694;13.294;2022-10-22T10:12:05;14.80;99.90
18577;DHT22;9418;52.694;13.294;2022-10-22T10:14:38;14.90;99.90
18577;DHT22;9418;52.694;13.294;2022-10-22T10:17:17;14.90;99.90
18577;DHT22;9418;52.694;13.294;2022-10-22T10:19:55;14.90;99.90
18577;DHT22;9418;52.694;13.294;2022-10-22T10:22:34;15.00;99.90
18577;DHT22;9418;52.694;13.294;2022-10-22T10:25:23;15.10;99.90
18577;DHT22;9418;52.694;13.294;2022-10-22T10:27:55;15.10;99.90
18577;DHT22;9418;52.694;13.294;2022-10-22T10:30:23;15.20;99.90
18577;DHT22;9418;52.694;13.294;2022-10-22T10:33:02;15.20;99.90
18577;DHT22;9418;52.694;13.294;2022-10-22T10:35:39;15.20;99.90
18577;DHT22;9418;52.694;13.294;2022-10-22T10:38:30;15.30;99.90
18577;DHT22;9418;52.694;13.294;2022-10-22T10:41:05;15.50;99.90
18577;DHT22;9418;52.694;13.294;2022-10-22T10:43:40;15.40;99.90
18577;DHT22;9418;52.694;13.294;2022-10-22T10:46:13;15.40;21.30
18577;DHT22;9418;52.694;13.294;2022-10-22T10:48:48;15.50;75.00
18577;DHT22;9418;52.694;13.294;2022-10-22T10:51:34;15.50;20.30
18577;DHT22;9418;52.694;13.294;2022-10-22T10:54:23;15.60;26.80
18577;DHT22;9418;52.694;13.294;2022-10-22T10:56:54;15.70;54.90
18577;DHT22;9418;52.694;13.294;2022-10-22T10:59:31;15.90;37.10
18577;DHT22;9418;52.694;13.294;2022-10-22T11:02:14;16.10;51.70
18577;DHT22;9418;52.694;13.294;2022-10-22T11:05:02;16.30;64.30
18577;DHT22;9418;52.694;13.294;2022-10-22T11:07:37;16.50;83.50
18577;DHT22;9418;52.694;13.294;2022-10-22T11:10:13;16.60;99.90
18577;DHT22;9418;52.694;13.294;2022-10-22T11:12:47;16.60;99.90
18577;DHT22;9418;52.694;13.294;2022-10-22T11:15:25;16.60;99.90
18577;DHT22;9418;52.694;13.294;2022-10-22T11:17:56;16.50;99.90
18577;DHT22;9418;52.694;13.294;2022-10-22T11:20:38;16.50;99.90
18577;DHT22;9418;52.694;13.294;2022-10-22T11:23:11;16.50;99.90
18577;DHT22;9418;52.694;13.294;2022-10-22T11:25:43;16.50;99.90
18577;DHT22;9418;52.694;13.294;2022-10-22T11:28:13;16.40;99.90
18577;DHT22;9418;52.694;13.294;2022-10-22T11:30:44;16.50;99.90
18577;DHT22;9418;52.694;13.294;2022-10-22T11:33:15;16.60;99.90
18577;DHT22;9418;52.694;13.294;2022-10-22T11:35:44;16.70;99.90
18577;DHT22;9418;52.694;13.294;2022-10-22T11:38:14;16.70;99.90
18577;DHT22;9418;52.694;13.294;2022-10-22T11:40:46;16.70;99.90
18577;DHT22;9418;52.694;13.294;2022-10-22T11:43:26;16.70;99.90
18577;DHT22;9418;52.694;13.294;2022-10-22T11:45:57;16.60;99.90
18577;DHT22;9418;52.694;13.294;2022-10-22T11:48:27;16.60;99.90
18577;DHT22;9418;52.694;13.294;2022-10-22T11:51:00;17.10;99.90
18577;DHT22;9418;52.694;13.294;2022-10-22T11:53:30;17.20;99.90
18577;DHT22;9418;52.694;13.294;2022-10-22T11:56:03;17.10;99.90
18577;DHT22;9418;52.694;13.294;2022-10-22T11:58:46;17.00;99.90
18577;DHT22;9418;52.694;13.294;2022-10-22T12:01:24;16.90;99.90
18577;DHT22;9418;52.694;13.294;2022-10-22T12:03:52;16.80;99.90
18577;DHT22;9418;52.694;13.294;2022-10-22T12:06:55;17.00;99.90
18577;DHT22;9418;52.694;13.294;2022-10-22T12:09:23;17.50;99.90
18577;DHT22;9418;52.694;13.294;2022-10-22T12:11:52;17.80;99.90
18577;DHT22;9418;52.694;13.294;2022-10-22T12:14:21;17.80;21.30
18577;DHT22;9418;52.694;13.294;2022-10-22T12:16:52;17.80;24.40
18577;DHT22;9418;52.694;13.294;2022-10-22T12:19:25;17.70;31.20
18577;DHT22;9418;52.694;13.294;2022-10-22T12:21:54;17.60;27.50
18577;DHT22;9418;52.694;13.294;2022-10-22T12:24:23;17.60;23.80
18577;DHT22;9418;52.694;13.294;2022-10-22T12:26:51;17.40;99.90
18577;DHT22;9418;52.694;13.294;2022-10-22T12:29:19;17.40;89.10
18577;DHT22;9418;52.694;13.294;2022-10-22T12:31:48;17.50;99.90
18577;DHT22;9418;52.694;13.294;2022-10-22T12:34:16;17.50;99.90
18577;DHT22;9418;52.694;13.294;2022-10-22T12:36:43;17.70;99.90
18577;DHT22;9418;52.694;13.294;2022-10-22T12:39:14;17.70;99.90
18577;DHT22;9418;52.694;13.294;2022-10-22T12:41:41;17.90;99.90
18577;DHT22;9418;52.694;13.294;2022-10-22T12:44:11;17.80;32.40
18577;DHT22;9418;52.694;13.294;2022-10-22T12:46:39;17.70;27.50
18577;DHT22;9418;52.694;13.294;2022-10-22T12:49:10;17.70;24.20
18577;DHT22;9418;52.694;13.294;2022-10-22T12:51:39;17.60;22.40
18577;DHT22;9418;52.694;13.294;2022-10-22T12:54:07;17.70;99.90
18577;DHT22;9418;52.694;13.294;2022-10-22T12:56:36;18.00;88.80
18577;DHT22;9418;52.694;13.294;2022-10-22T12:59:06;18.10;35.60
18577;DHT22;9418;52.694;13.294;2022-10-22T13:01:41;18.40;41.10
18577;DHT22;9418;52.694;13.294;2022-10-22T13:04:20;18.90;97.70
18577;DHT22;9418;52.694;13.294;2022-10-22T13:06:48;18.80;99.90
18577;DHT22;9418;52.694;13.294;2022-10-22T13:09:18;18.90;99.90
18577;DHT22;9418;52.694;13.294;2022-10-22T13:11:50;18.90;99.90
18577;DHT22;9418;52.694;13.294;2022-10-22T13:14:25;19.00;99.90
18577;DHT22;9418;52.694;13.294;2022-10-22T13:17:05;19.30;99.90
18577;DHT22;9418;52.694;13.294;2022-10-22T13:19:38;20.40;99.90
18577;DHT22;9418;52.694;13.294;2022-10-22T13:22:29;21.10;22.50
18577;DHT22;9418;52.694;13.294;2022-10-22T13:24:57;21.30;40.30
18577;DHT22;9418;52.694;13.294;2022-10-22T13:27:25;21.10;40.30
18577;DHT22;9418;52.694;13.294;2022-10-22T13:29:52;20.70;32.00
18577;DHT22;9418;52.694;13.294;2022-10-22T13:32:31;20.60;99.90
18577;DHT22;9418;52.694;13.294;2022-10-22T13:34:59;20.40;83.70
18577;DHT22;9418;52.694;13.294;2022-10-22T13:37:28;20.30;74.40
18577;DHT22;9418;52.694;13.294;2022-10-22T13:39:55;20.00;81.30
18577;DHT22;9418;52.694;13.294;2022-10-22T13:42:22;19.90;97.80
18577;DHT22;9418;52.694;13.294;2022-10-22T13:44:48;19.70;88.50
18577;DHT22;9418;52.694;13.294;2022-10-22T13:47:24;19.70;99.90
18577;DHT22;9418;52.694;13.294;2022-10-22T13:49:54;19.60;99.90
18577;DHT22;9418;52.694;13.294;2022-10-22T13:52:34;19.50;99.90
18577;DHT22;9418;52.694;13.294;2022-10-22T13:55:01;19.50;99.90
18577;DHT22;9418;52.694;13.294;2022-10-22T13:57:28;19.50;99.90
18577;DHT22;9418;52.694;13.294;2022-10-22T13:59:55;19.40;99.90
18577;DHT22;9418;52.694;13.294;2022-10-22T14:02:21;19.40;99.90
18577;DHT22;9418;52.694;13.294;2022-10-22T14:04:49;19.30;99.90
18577;DHT22;9418;52.694;13.294;2022-10-22T14:07:18;19.20;99.90
18577;DHT22;9418;52.694;13.294;2022-10-22T14:09:45;19.20;99.90
18577;DHT22;9418;52.694;13.294;2022-10-22T14:12:13;19.10;99.90
18577;DHT22;9418;52.694;13.294;2022-10-22T14:14:40;19.10;99.90
18577;DHT22;9418;52.694;13.294;2022-10-22T14:17:11;19.10;99.90
18577;DHT22;9418;52.694;13.294;2022-10-22T14:19:40;19.00;99.90
18577;DHT22;9418;52.694;13.294;2022-10-22T14:22:09;18.90;99.90
18577;DHT22;9418;52.694;13.294;2022-10-22T14:24:40;18.90;99.90
18577;DHT22;9418;52.694;13.294;2022-10-22T14:27:09;18.80;99.90
18577;DHT22;9418;52.694;13.294;2022-10-22T14:29:36;18.80;99.90
18577;DHT22;9418;52.694;13.294;2022-10-22T14:32:04;18.70;99.90
18577;DHT22;9418;52.694;13.294;2022-10-22T14:34:31;18.70;99.90
18577;DHT22;9418;52.694;13.294;2022-10-22T14:36:58;18.60;99.90
18577;DHT22;9418;52.694;13.294;2022-10-22T14:39:24;18.60;99.90
18577;DHT22;9418;52.694;13.294;2022-10-22T14:41:52;18.50;99.90
18577;DHT22;9418;52.694;13.294;2022-10-22T14:44:19;18.50;99.90
18577;DHT22;9418;52.694;13.294;2022-10-22T14:46:46;18.40;99.90
18577;DHT22;9418;52.694;13.294;2022-10-22T14:49:12;18.30;99.90
18577;DHT22;9418;52.694;13.294;2022-10-22T14:51:39;18.30;99.90
18577;DHT22;9418;52.694;13.294;2022-10-22T14:54:06;18.30;99.90
18577;DHT22;9418;52.694;13.294;2022-10-22T14:56:32;18.20;99.90
18577;DHT22;9418;52.694;13.294;2022-10-22T14:59:01;18.20;99.90
18577;DHT22;9418;52.694;13.294;2022-10-22T15:01:27;18.10;99.90
18577;DHT22;9418;52.694;13.294;2022-10-22T15:03:54;18.10;99.90
18577;DHT22;9418;52.694;13.294;2022-10-22T15:06:21;18.00;99.90
18577;DHT22;9418;52.694;13.294;2022-10-22T15:08:47;18.00;99.90
18577;DHT22;9418;52.694;13.294;2022-10-22T15:11:14;17.90;99.90
18577;DHT22;9418;52.694;13.294;2022-10-22T15:13:40;17.80;99.90
18577;DHT22;9418;52.694;13.294;2022-10-22T15:16:11;17.80;99.90
18577;DHT22;9418;52.694;13.294;2022-10-22T15:18:38;17.70;99.90
18577;DHT22;9418;52.694;13.294;2022-10-22T15:21:07;17.60;99.90
18577;DHT22;9418;52.694;13.294;2022-10-22T15:23:35;17.50;99.90
18577;DHT22;9418;52.694;13.294;2022-10-22T15:26:05;17.40;99.90
18577;DHT22;9418;52.694;13.294;2022-10-22T15:28:32;17.30;99.90
18577;DHT22;9418;52.694;13.294;2022-10-22T15:30:59;17.10;95.50
18577;DHT22;9418;52.694;13.294;2022-10-22T15:33:27;16.90;89.30
18577;DHT22;9418;52.694;13.294;2022-10-22T15:35:55;16.70;78.50
18577;DHT22;9418;52.694;13.294;2022-10-22T15:38:26;16.60;68.20
18577;DHT22;9418;52.694;13.294;2022-10-22T15:40:59;16.40;56.60
18577;DHT22;9418;52.694;13.294;2022-10-22T15:43:26;16.30;45.90
18577;DHT22;9418;52.694;13.294;2022-10-22T15:46:07;16.20;33.70